sensor_id;sensor_type;location;lat;lon;timestamp;temperature;humidity
11597;DHT22;5854;48.072;16.286;2024-02-23T00:01:09;8.60;79.90
11597;DHT22;5854;48.072;16.286;2024-02-23T00:03:37;8.60;79.00
11597;DHT22;5854;48.072;16.286;2024-02-23T00:06:04;8.60;80.50
11597;DHT22;5854;48.072;16.286;2024-02-23T00:08:32;8.60;78.40
11597;DHT22;5854;48.072;16.286;2024-02-23T00:10:59;8.60;79.50
11597;DHT22;5854;48.072;16.286;2024-02-23T00:13:28;8.60;80.70
11597;DHT22;5854;48.072;16.286;2024-02-23T00:15:55;8.50;82.20
11597;DHT22;5854;48.072;16.286;2024-02-23T00:18:22;8.50;82.10
11597;DHT22;5854;48.072;16.286;2024-02-23T00:20:50;8.50;82.00
11597;DHT22;5854;48.072;16.286;2024-02-23T00:23:17;8.50;80.20
11597;DHT22;5854;48.072;16.286;2024-02-23T00:25:45;8.50;79.70
11597;DHT22;5854;48.072;16.286;2024-02-23T00:28:12;8.60;78.30
11597;DHT22;5854;48.072;16.286;2024-02-23T00:30:40;8.60;78.90
11597;DHT22;5854;48.072;16.286;2024-02-23T00:33:08;8.50;80.50
11597;DHT22;5854;48.072;16.286;2024-02-23T00:35:35;8.50;79.50
11597;DHT22;5854;48.072;16.286;2024-02-23T00:38:03;8.50;78.90
11597;DHT22;5854;48.072;16.286;2024-02-23T00:40:30;8.60;78.10
11597;DHT22;5854;48.072;16.286;2024-02-23T00:42:58;8.50;78.40
11597;DHT22;5854;48.072;16.286;2024-02-23T00:45:26;8.50;78.70
11597;DHT22;5854;48.072;16.286;2024-02-23T00:47:55;8.60;78.10
11597;DHT22;5854;48.072;16.286;2024-02-23T00:50:23;8.60;80.80
11597;DHT22;5854;48.072;16.286;2024-02-23T00:52:51;8.50;79.70
11597;DHT22;5854;48.072;16.286;2024-02-23T00:55:19;8.50;78.10
11597;DHT22;5854;48.072;16.286;2024-02-23T00:57:47;8.50;79.70
11597;DHT22;5854;48.072;16.286;2024-02-23T01:00:14;8.60;79.90
11597;DHT22;5854;48.072;16.286;2024-02-23T01:02:42;8.50;79.00
11597;DHT22;5854;48.072;16.286;2024-02-23T01:05:11;8.50;81.00
11597;DHT22;5854;48.072;16.286;2024-02-23T01:07:38;8.40;82.00
11597;DHT22;5854;48.072;16.286;2024-02-23T01:10:06;8.40;78.90
11597;DHT22;5854;48.072;16.286;2024-02-23T01:12:35;8.40;78.10
11597;DHT22;5854;48.072;16.286;2024-02-23T01:15:03;8.40;78.60
11597;DHT22;5854;48.072;16.286;2024-02-23T01:17:31;8.40;77.70
11597;DHT22;5854;48.072;16.286;2024-02-23T01:19:58;8.40;78.60
11597;DHT22;5854;48.072;16.286;2024-02-23T01:22:27;8.40;81.80
11597;DHT22;5854;48.072;16.286;2024-02-23T01:24:54;8.40;79.60
11597;DHT22;5854;48.072;16.286;2024-02-23T01:27:21;8.40;79.40
11597;DHT22;5854;48.072;16.286;2024-02-23T01:29:48;8.40;77.70
11597;DHT22;5854;48.072;16.286;2024-02-23T01:32:16;8.30;78.70
11597;DHT22;5854;48.072;16.286;2024-02-23T01:34:43;8.30;79.30
11597;DHT22;5854;48.072;16.286;2024-02-23T01:37:10;8.30;80.50
11597;DHT22;5854;48.072;16.286;2024-02-23T01:39:39;8.30;81.30
11597;DHT22;5854;48.072;16.286;2024-02-23T01:42:07;8.30;81.00
11597;DHT22;5854;48.072;16.286;2024-02-23T01:44:35;8.30;80.70
11597;DHT22;5854;48.072;16.286;2024-02-23T01:47:02;8.30;84.30
11597;DHT22;5854;48.072;16.286;2024-02-23T01:49:30;8.30;82.00
11597;DHT22;5854;48.072;16.286;2024-02-23T01:52:00;8.30;81.30
11597;DHT22;5854;48.072;16.286;2024-02-23T01:54:28;8.30;81.80
11597;DHT22;5854;48.072;16.286;2024-02-23T01:56:58;8.30;81.00
11597;DHT22;5854;48.072;16.286;2024-02-23T01:59:27;8.30;82.00
11597;DHT22;5854;48.072;16.286;2024-02-23T02:01:55;8.30;81.20
11597;DHT22;5854;48.072;16.286;2024-02-23T02:04:22;8.30;83.30
11597;DHT22;5854;48.072;16.286;2024-02-23T02:06:49;8.20;81.40
11597;DHT22;5854;48.072;16.286;2024-02-23T02:09:17;8.30;80.90
11597;DHT22;5854;48.072;16.286;2024-02-23T02:11:47;8.30;82.70
11597;DHT22;5854;48.072;16.286;2024-02-23T02:14:16;8.20;83.90
11597;DHT22;5854;48.072;16.286;2024-02-23T02:16:44;8.10;83.40
11597;DHT22;5854;48.072;16.286;2024-02-23T02:19:12;8.20;81.60
11597;DHT22;5854;48.072;16.286;2024-02-23T02:21:40;8.20;80.60
11597;DHT22;5854;48.072;16.286;2024-02-23T02:24:08;8.30;80.30
11597;DHT22;5854;48.072;16.286;2024-02-23T02:26:37;8.30;81.10
11597;DHT22;5854;48.072;16.286;2024-02-23T02:29:04;8.30;79.10
11597;DHT22;5854;48.072;16.286;2024-02-23T02:31:33;8.30;81.30
11597;DHT22;5854;48.072;16.286;2024-02-23T02:34:03;8.30;80.10
11597;DHT22;5854;48.072;16.286;2024-02-23T02:36:30;8.40;80.50
11597;DHT22;5854;48.072;16.286;2024-02-23T02:38:57;8.40;80.80
11597;DHT22;5854;48.072;16.286;2024-02-23T02:41:27;8.30;79.40
11597;DHT22;5854;48.072;16.286;2024-02-23T02:43:55;8.40;82.30
11597;DHT22;5854;48.072;16.286;2024-02-23T02:46:23;8.30;81.30
11597;DHT22;5854;48.072;16.286;2024-02-23T02:48:51;8.30;79.80
11597;DHT22;5854;48.072;16.286;2024-02-23T02:51:19;8.40;80.80
11597;DHT22;5854;48.072;16.286;2024-02-23T02:53:46;8.40;79.00
11597;DHT22;5854;48.072;16.286;2024-02-23T02:56:13;8.40;79.50
11597;DHT22;5854;48.072;16.286;2024-02-23T02:58:41;8.40;80.30
11597;DHT22;5854;48.072;16.286;2024-02-23T03:01:08;8.40;79.80
11597;DHT22;5854;48.072;16.286;2024-02-23T03:03:35;8.30;80.80
11597;DHT22;5854;48.072;16.286;2024-02-23T03:06:04;8.30;80.00
11597;DHT22;5854;48.072;16.286;2024-02-23T03:08:32;8.30;84.30
11597;DHT22;5854;48.072;16.286;2024-02-23T03:11:00;8.20;85.10
11597;DHT22;5854;48.072;16.286;2024-02-23T03:13:28;8.20;85.90
11597;DHT22;5854;48.072;16.286;2024-02-23T03:15:57;8.20;82.00
11597;DHT22;5854;48.072;16.286;2024-02-23T03:18:24;8.30;81.20
11597;DHT22;5854;48.072;16.286;2024-02-23T03:20:53;8.30;79.90
11597;DHT22;5854;48.072;16.286;2024-02-23T03:23:22;8.30;83.80
11597;DHT22;5854;48.072;16.286;2024-02-23T03:25:49;8.30;82.70
11597;DHT22;5854;48.072;16.286;2024-02-23T03:28:16;8.30;82.80
11597;DHT22;5854;48.072;16.286;2024-02-23T03:30:44;8.20;81.60
11597;DHT22;5854;48.072;16.286;2024-02-23T03:33:11;8.30;80.40
11597;DHT22;5854;48.072;16.286;2024-02-23T03:35:38;8.30;81.80
11597;DHT22;5854;48.072;16.286;2024-02-23T03:38:06;8.20;85.20
11597;DHT22;5854;48.072;16.286;2024-02-23T03:40:35;8.20;82.50
11597;DHT22;5854;48.072;16.286;2024-02-23T03:43:02;8.20;82.50
11597;DHT22;5854;48.072;16.286;2024-02-23T03:45:31;8.10;88.70
11597;DHT22;5854;48.072;16.286;2024-02-23T03:47:58;8.10;88.80
11597;DHT22;5854;48.072;16.286;2024-02-23T03:50:26;8.10;89.70
11597;DHT22;5854;48.072;16.286;2024-02-23T03:52:53;8.30;84.20
11597;DHT22;5854;48.072;16.286;2024-02-23T03:55:21;8.30;82.80
11597;DHT22;5854;48.072;16.286;2024-02-23T03:57:50;8.50;83.00
11597;DHT22;5854;48.072;16.286;2024-02-23T04:00:17;8.50;85.30
11597;DHT22;5854;48.072;16.286;2024-02-23T04:02:45;8.60;84.20
11597;DHT22;5854;48.072;16.286;2024-02-23T04:05:12;8.50;82.40
11597;DHT22;5854;48.072;16.286;2024-02-23T04:07:40;8.60;82.50
11597;DHT22;5854;48.072;16.286;2024-02-23T04:10:08;8.60;84.90
11597;DHT22;5854;48.072;16.286;2024-02-23T04:12:36;8.50;79.60
11597;DHT22;5854;48.072;16.286;2024-02-23T04:15:05;8.50;81.70
11597;DHT22;5854;48.072;16.286;2024-02-23T04:17:33;8.50;81.60
11597;DHT22;5854;48.072;16.286;2024-02-23T04:20:05;8.40;82.00
11597;DHT22;5854;48.072;16.286;2024-02-23T04:22:35;8.30;81.70
11597;DHT22;5854;48.072;16.286;2024-02-23T04:25:03;8.30;82.30
11597;DHT22;5854;48.072;16.286;2024-02-23T04:27:30;8.30;82.40
11597;DHT22;5854;48.072;16.286;2024-02-23T04:29:58;8.30;84.50
11597;DHT22;5854;48.072;16.286;2024-02-23T04:32:27;8.30;83.30
11597;DHT22;5854;48.072;16.286;2024-02-23T04:34:54;8.30;85.00
11597;DHT22;5854;48.072;16.286;2024-02-23T04:37:22;8.20;83.20
11597;DHT22;5854;48.072;16.286;2024-02-23T04:39:49;8.20;82.10
11597;DHT22;5854;48.072;16.286;2024-02-23T04:42:16;8.20;86.70
11597;DHT22;5854;48.072;16.286;2024-02-23T04:44:44;8.20;82.10
11597;DHT22;5854;48.072;16.286;2024-02-23T04:47:11;8.10;82.10
11597;DHT22;5854;48.072;16.286;2024-02-23T04:49:40;8.10;82.90
11597;DHT22;5854;48.072;16.286;2024-02-23T04:52:08;8.10;83.50
11597;DHT22;5854;48.072;16.286;2024-02-23T04:54:35;8.10;82.80
11597;DHT22;5854;48.072;16.286;2024-02-23T04:57:02;8.20;83.20
11597;DHT22;5854;48.072;16.286;2024-02-23T04:59:30;8.10;81.50
11597;DHT22;5854;48.072;16.286;2024-02-23T05:01:58;8.10;81.40
11597;DHT22;5854;48.072;16.286;2024-02-23T05:04:25;8.10;81.50
11597;DHT22;5854;48.072;16.286;2024-02-23T05:06:55;8.10;81.90
11597;DHT22;5854;48.072;16.286;2024-02-23T05:09:22;8.10;80.50
11597;DHT22;5854;48.072;16.286;2024-02-23T05:11:53;8.10;81.70
11597;DHT22;5854;48.072;16.286;2024-02-23T05:14:20;8.10;83.10
11597;DHT22;5854;48.072;16.286;2024-02-23T05:16:48;8.00;81.80
11597;DHT22;5854;48.072;16.286;2024-02-23T05:19:15;8.00;82.60
11597;DHT22;5854;48.072;16.286;2024-02-23T05:21:42;8.10;81.80
11597;DHT22;5854;48.072;16.286;2024-02-23T05:24:12;8.10;82.70
11597;DHT22;5854;48.072;16.286;2024-02-23T05:26:39;8.10;81.90
11597;DHT22;5854;48.072;16.286;2024-02-23T05:29:06;8.00;81.10
11597;DHT22;5854;48.072;16.286;2024-02-23T05:31:48;8.10;82.10
11597;DHT22;5854;48.072;16.286;2024-02-23T05:34:15;8.10;82.60
11597;DHT22;5854;48.072;16.286;2024-02-23T05:36:43;8.10;82.40
11597;DHT22;5854;48.072;16.286;2024-02-23T05:39:12;8.10;83.00
11597;DHT22;5854;48.072;16.286;2024-02-23T05:41:41;8.10;81.60
11597;DHT22;5854;48.072;16.286;2024-02-23T05:44:08;8.10;82.00
11597;DHT22;5854;48.072;16.286;2024-02-23T05:46:36;8.10;82.10
11597;DHT22;5854;48.072;16.286;2024-02-23T05:49:04;8.10;80.90
11597;DHT22;5854;48.072;16.286;2024-02-23T05:51:31;8.10;81.20
11597;DHT22;5854;48.072;16.286;2024-02-23T05:53:59;8.10;81.60
11597;DHT22;5854;48.072;16.286;2024-02-23T05:56:28;8.10;79.70
11597;DHT22;5854;48.072;16.286;2024-02-23T05:58:55;8.10;80.50
11597;DHT22;5854;48.072;16.286;2024-02-23T06:01:23;8.10;80.30
11597;DHT22;5854;48.072;16.286;2024-02-23T06:03:50;8.10;79.70
11597;DHT22;5854;48.072;16.286;2024-02-23T06:06:19;8.10;79.60
11597;DHT22;5854;48.072;16.286;2024-02-23T06:08:46;8.10;79.30
11597;DHT22;5854;48.072;16.286;2024-02-23T06:11:15;8.20;79.00
11597;DHT22;5854;48.072;16.286;2024-02-23T06:13:44;8.20;78.60
11597;DHT22;5854;48.072;16.286;2024-02-23T06:16:12;8.20;78.10
11597;DHT22;5854;48.072;16.286;2024-02-23T06:18:42;8.20;77.70
11597;DHT22;5854;48.072;16.286;2024-02-23T06:21:12;8.20;78.00
11597;DHT22;5854;48.072;16.286;2024-02-23T06:23:40;8.20;77.90
11597;DHT22;5854;48.072;16.286;2024-02-23T06:26:08;8.30;77.10
11597;DHT22;5854;48.072;16.286;2024-02-23T06:28:36;8.30;76.70
11597;DHT22;5854;48.072;16.286;2024-02-23T06:31:06;8.20;75.50
11597;DHT22;5854;48.072;16.286;2024-02-23T06:33:33;8.20;76.70
11597;DHT22;5854;48.072;16.286;2024-02-23T06:36:01;8.30;76.70
11597;DHT22;5854;48.072;16.286;2024-02-23T06:38:29;8.30;76.10
11597;DHT22;5854;48.072;16.286;2024-02-23T06:40:56;8.30;75.50
11597;DHT22;5854;48.072;16.286;2024-02-23T06:43:24;8.20;75.50
11597;DHT22;5854;48.072;16.286;2024-02-23T06:45:52;8.20;75.10
11597;DHT22;5854;48.072;16.286;2024-02-23T06:48:20;8.20;76.20
11597;DHT22;5854;48.072;16.286;2024-02-23T06:50:48;8.30;75.40
11597;DHT22;5854;48.072;16.286;2024-02-23T06:53:15;8.30;74.50
11597;DHT22;5854;48.072;16.286;2024-02-23T06:55:42;8.30;76.20
11597;DHT22;5854;48.072;16.286;2024-02-23T06:58:10;8.30;75.80
11597;DHT22;5854;48.072;16.286;2024-02-23T07:00:39;8.30;75.90
11597;DHT22;5854;48.072;16.286;2024-02-23T07:03:06;8.30;75.40
11597;DHT22;5854;48.072;16.286;2024-02-23T07:05:35;8.30;75.80
11597;DHT22;5854;48.072;16.286;2024-02-23T07:08:03;8.30;77.30
11597;DHT22;5854;48.072;16.286;2024-02-23T07:10:31;8.40;75.70
11597;DHT22;5854;48.072;16.286;2024-02-23T07:12:58;8.40;74.80
11597;DHT22;5854;48.072;16.286;2024-02-23T07:15:26;8.40;76.00
11597;DHT22;5854;48.072;16.286;2024-02-23T07:17:53;8.40;76.50
11597;DHT22;5854;48.072;16.286;2024-02-23T07:20:21;8.40;77.60
11597;DHT22;5854;48.072;16.286;2024-02-23T07:22:50;8.40;77.90
11597;DHT22;5854;48.072;16.286;2024-02-23T07:25:18;8.40;79.00
11597;DHT22;5854;48.072;16.286;2024-02-23T07:27:46;8.40;79.90
11597;DHT22;5854;48.072;16.286;2024-02-23T07:30:15;8.40;77.30
11597;DHT22;5854;48.072;16.286;2024-02-23T07:32:43;8.40;80.70
11597;DHT22;5854;48.072;16.286;2024-02-23T07:35:12;8.40;80.80
11597;DHT22;5854;48.072;16.286;2024-02-23T07:37:39;8.40;80.30
11597;DHT22;5854;48.072;16.286;2024-02-23T07:40:09;8.40;81.50
11597;DHT22;5854;48.072;16.286;2024-02-23T07:42:38;8.40;81.20
11597;DHT22;5854;48.072;16.286;2024-02-23T07:45:07;8.40;84.10
11597;DHT22;5854;48.072;16.286;2024-02-23T07:47:35;8.40;84.30
11597;DHT22;5854;48.072;16.286;2024-02-23T07:50:03;8.40;84.30
11597;DHT22;5854;48.072;16.286;2024-02-23T07:52:31;8.40;84.60
11597;DHT22;5854;48.072;16.286;2024-02-23T07:54:58;8.30;84.80
11597;DHT22;5854;48.072;16.286;2024-02-23T07:57:29;8.40;84.70
11597;DHT22;5854;48.072;16.286;2024-02-23T07:59:57;8.40;83.10
11597;DHT22;5854;48.072;16.286;2024-02-23T08:02:25;8.40;81.90
11597;DHT22;5854;48.072;16.286;2024-02-23T08:04:52;8.40;82.30
11597;DHT22;5854;48.072;16.286;2024-02-23T08:07:19;8.40;82.00
11597;DHT22;5854;48.072;16.286;2024-02-23T08:09:48;8.40;81.40
11597;DHT22;5854;48.072;16.286;2024-02-23T08:12:16;8.40;79.80
11597;DHT22;5854;48.072;16.286;2024-02-23T08:14:44;8.40;80.00
11597;DHT22;5854;48.072;16.286;2024-02-23T08:17:14;8.50;81.10
11597;DHT22;5854;48.072;16.286;2024-02-23T08:19:41;8.50;81.00
11597;DHT22;5854;48.072;16.286;2024-02-23T08:22:09;8.50;81.30
11597;DHT22;5854;48.072;16.286;2024-02-23T08:24:36;8.50;78.40
11597;DHT22;5854;48.072;16.286;2024-02-23T08:27:04;8.60;79.10
11597;DHT22;5854;48.072;16.286;2024-02-23T08:29:31;8.60;78.40
11597;DHT22;5854;48.072;16.286;2024-02-23T08:32:00;8.70;75.70
11597;DHT22;5854;48.072;16.286;2024-02-23T08:34:28;8.70;74.00
11597;DHT22;5854;48.072;16.286;2024-02-23T08:36:55;8.80;73.10
11597;DHT22;5854;48.072;16.286;2024-02-23T08:39:22;8.90;73.60
11597;DHT22;5854;48.072;16.286;2024-02-23T08:41:50;9.00;72.90
11597;DHT22;5854;48.072;16.286;2024-02-23T08:44:17;9.00;71.30
11597;DHT22;5854;48.072;16.286;2024-02-23T08:46:45;9.10;71.30
11597;DHT22;5854;48.072;16.286;2024-02-23T08:49:15;9.20;70.10
11597;DHT22;5854;48.072;16.286;2024-02-23T08:51:42;9.20;69.70
11597;DHT22;5854;48.072;16.286;2024-02-23T08:54:10;9.30;69.30
11597;DHT22;5854;48.072;16.286;2024-02-23T08:56:37;9.30;68.20
11597;DHT22;5854;48.072;16.286;2024-02-23T08:59:07;9.30;68.90
11597;DHT22;5854;48.072;16.286;2024-02-23T09:01:35;9.30;68.00
11597;DHT22;5854;48.072;16.286;2024-02-23T09:04:03;9.30;68.70
11597;DHT22;5854;48.072;16.286;2024-02-23T09:06:32;9.20;68.60
11597;DHT22;5854;48.072;16.286;2024-02-23T09:09:03;9.20;67.90
11597;DHT22;5854;48.072;16.286;2024-02-23T09:11:31;9.30;68.80
11597;DHT22;5854;48.072;16.286;2024-02-23T09:13:58;9.40;67.90
11597;DHT22;5854;48.072;16.286;2024-02-23T09:16:26;9.40;68.40
11597;DHT22;5854;48.072;16.286;2024-02-23T09:18:53;9.40;67.90
11597;DHT22;5854;48.072;16.286;2024-02-23T09:21:20;9.40;65.80
11597;DHT22;5854;48.072;16.286;2024-02-23T09:23:49;9.50;67.20
11597;DHT22;5854;48.072;16.286;2024-02-23T09:26:16;9.50;66.10
11597;DHT22;5854;48.072;16.286;2024-02-23T09:28:44;9.60;65.20
11597;DHT22;5854;48.072;16.286;2024-02-23T09:31:12;9.60;67.10
11597;DHT22;5854;48.072;16.286;2024-02-23T09:33:39;9.70;66.90
11597;DHT22;5854;48.072;16.286;2024-02-23T09:36:07;9.70;66.40
11597;DHT22;5854;48.072;16.286;2024-02-23T09:38:35;9.70;69.40
11597;DHT22;5854;48.072;16.286;2024-02-23T09:41:04;9.70;70.90
11597;DHT22;5854;48.072;16.286;2024-02-23T09:43:33;9.70;71.90
11597;DHT22;5854;48.072;16.286;2024-02-23T09:46:00;9.70;70.40
11597;DHT22;5854;48.072;16.286;2024-02-23T09:48:28;9.60;70.20
11597;DHT22;5854;48.072;16.286;2024-02-23T09:50:59;9.60;71.30
11597;DHT22;5854;48.072;16.286;2024-02-23T09:53:30;9.60;71.70
11597;DHT22;5854;48.072;16.286;2024-02-23T09:55:59;9.80;73.30
11597;DHT22;5854;48.072;16.286;2024-02-23T09:58:31;9.80;72.80
11597;DHT22;5854;48.072;16.286;2024-02-23T10:01:00;9.80;70.80
11597;DHT22;5854;48.072;16.286;2024-02-23T10:03:29;9.90;70.80
11597;DHT22;5854;48.072;16.286;2024-02-23T10:05:57;9.90;70.00
11597;DHT22;5854;48.072;16.286;2024-02-23T10:08:27;9.90;70.60
11597;DHT22;5854;48.072;16.286;2024-02-23T10:10:55;9.90;71.10
11597;DHT22;5854;48.072;16.286;2024-02-23T10:13:23;10.00;73.50
11597;DHT22;5854;48.072;16.286;2024-02-23T10:15:52;10.00;72.30
11597;DHT22;5854;48.072;16.286;2024-02-23T10:18:20;10.00;71.50
11597;DHT22;5854;48.072;16.286;2024-02-23T10:20:48;10.00;71.30
11597;DHT22;5854;48.072;16.286;2024-02-23T10:23:21;9.90;70.70
11597;DHT22;5854;48.072;16.286;2024-02-23T10:28:32;10.00;70.40
11597;DHT22;5854;48.072;16.286;2024-02-23T10:33:38;10.00;70.80
11597;DHT22;5854;48.072;16.286;2024-02-23T10:36:08;10.00;68.90
11597;DHT22;5854;48.072;16.286;2024-02-23T10:38:47;9.90;68.50
11597;DHT22;5854;48.072;16.286;2024-02-23T10:43:55;9.80;70.10
11597;DHT22;5854;48.072;16.286;2024-02-23T10:46:25;9.90;70.70
11597;DHT22;5854;48.072;16.286;2024-02-23T10:48:55;9.90;69.50
11597;DHT22;5854;48.072;16.286;2024-02-23T10:51:24;10.00;67.60
11597;DHT22;5854;48.072;16.286;2024-02-23T10:53:52;10.00;67.60
11597;DHT22;5854;48.072;16.286;2024-02-23T10:56:20;10.00;69.20
11597;DHT22;5854;48.072;16.286;2024-02-23T10:58:48;10.00;67.10
11597;DHT22;5854;48.072;16.286;2024-02-23T11:01:15;10.00;68.50
11597;DHT22;5854;48.072;16.286;2024-02-23T11:03:44;10.00;68.00
11597;DHT22;5854;48.072;16.286;2024-02-23T11:06:17;9.90;68.20
11597;DHT22;5854;48.072;16.286;2024-02-23T11:08:47;9.80;68.10
11597;DHT22;5854;48.072;16.286;2024-02-23T11:11:16;9.70;68.20
11597;DHT22;5854;48.072;16.286;2024-02-23T11:13:44;9.70;68.30
11597;DHT22;5854;48.072;16.286;2024-02-23T11:16:21;9.70;67.30
11597;DHT22;5854;48.072;16.286;2024-02-23T11:18:49;9.80;67.00
11597;DHT22;5854;48.072;16.286;2024-02-23T11:21:35;9.70;65.70
11597;DHT22;5854;48.072;16.286;2024-02-23T11:24:04;9.80;66.10
11597;DHT22;5854;48.072;16.286;2024-02-23T11:26:32;9.80;67.40
11597;DHT22;5854;48.072;16.286;2024-02-23T11:29:09;9.90;68.20
11597;DHT22;5854;48.072;16.286;2024-02-23T11:31:44;9.90;67.20
11597;DHT22;5854;48.072;16.286;2024-02-23T11:34:13;9.80;65.90
11597;DHT22;5854;48.072;16.286;2024-02-23T11:36:42;9.80;67.50
11597;DHT22;5854;48.072;16.286;2024-02-23T11:39:10;9.70;67.90
11597;DHT22;5854;48.072;16.286;2024-02-23T11:41:39;9.70;69.10
11597;DHT22;5854;48.072;16.286;2024-02-23T11:44:07;9.80;68.70
11597;DHT22;5854;48.072;16.286;2024-02-23T11:46:34;9.80;69.40
11597;DHT22;5854;48.072;16.286;2024-02-23T11:49:02;9.80;69.60
11597;DHT22;5854;48.072;16.286;2024-02-23T11:51:29;9.70;70.10
11597;DHT22;5854;48.072;16.286;2024-02-23T11:53:58;9.70;70.00
11597;DHT22;5854;48.072;16.286;2024-02-23T11:56:26;9.70;70.70
11597;DHT22;5854;48.072;16.286;2024-02-23T11:58:53;9.70;70.60
11597;DHT22;5854;48.072;16.286;2024-02-23T12:01:21;9.70;69.50
11597;DHT22;5854;48.072;16.286;2024-02-23T12:03:48;9.70;70.80
11597;DHT22;5854;48.072;16.286;2024-02-23T12:06:17;9.70;70.80
11597;DHT22;5854;48.072;16.286;2024-02-23T12:08:44;9.70;71.50
11597;DHT22;5854;48.072;16.286;2024-02-23T12:11:14;9.70;71.10
11597;DHT22;5854;48.072;16.286;2024-02-23T12:13:41;9.70;71.00
11597;DHT22;5854;48.072;16.286;2024-02-23T12:16:09;9.60;71.50
11597;DHT22;5854;48.072;16.286;2024-02-23T12:18:36;9.60;72.20
11597;DHT22;5854;48.072;16.286;2024-02-23T12:21:05;9.60;72.20
11597;DHT22;5854;48.072;16.286;2024-02-23T12:23:40;9.60;73.20
11597;DHT22;5854;48.072;16.286;2024-02-23T12:26:08;9.50;74.00
11597;DHT22;5854;48.072;16.286;2024-02-23T12:28:37;9.50;73.50
11597;DHT22;5854;48.072;16.286;2024-02-23T12:31:05;9.40;74.50
11597;DHT22;5854;48.072;16.286;2024-02-23T12:33:33;9.40;75.40
11597;DHT22;5854;48.072;16.286;2024-02-23T12:36:02;9.40;76.40
11597;DHT22;5854;48.072;16.286;2024-02-23T12:38:30;9.40;77.00
11597;DHT22;5854;48.072;16.286;2024-02-23T12:40:59;9.40;78.10
11597;DHT22;5854;48.072;16.286;2024-02-23T12:43:28;9.40;78.20
11597;DHT22;5854;48.072;16.286;2024-02-23T12:45:57;9.40;81.50
11597;DHT22;5854;48.072;16.286;2024-02-23T12:48:27;9.30;80.50
11597;DHT22;5854;48.072;16.286;2024-02-23T12:50:54;9.30;84.60
11597;DHT22;5854;48.072;16.286;2024-02-23T12:53:32;9.30;86.30
11597;DHT22;5854;48.072;16.286;2024-02-23T12:56:02;9.30;85.80
11597;DHT22;5854;48.072;16.286;2024-02-23T12:58:30;9.50;85.00
11597;DHT22;5854;48.072;16.286;2024-02-23T13:01:00;9.40;86.50
11597;DHT22;5854;48.072;16.286;2024-02-23T13:03:27;9.40;86.10
11597;DHT22;5854;48.072;16.286;2024-02-23T13:05:56;9.30;84.60
11597;DHT22;5854;48.072;16.286;2024-02-23T13:08:24;9.40;85.20
11597;DHT22;5854;48.072;16.286;2024-02-23T13:10:53;9.30;86.10
11597;DHT22;5854;48.072;16.286;2024-02-23T13:13:21;9.30;84.80
11597;DHT22;5854;48.072;16.286;2024-02-23T13:15:50;9.30;85.70
11597;DHT22;5854;48.072;16.286;2024-02-23T13:18:19;9.30;86.30
11597;DHT22;5854;48.072;16.286;2024-02-23T13:20:47;9.40;85.10
11597;DHT22;5854;48.072;16.286;2024-02-23T13:23:14;9.30;82.50
11597;DHT22;5854;48.072;16.286;2024-02-23T13:25:42;9.30;82.70
11597;DHT22;5854;48.072;16.286;2024-02-23T13:28:11;9.40;84.00
11597;DHT22;5854;48.072;16.286;2024-02-23T13:30:38;9.40;84.60
11597;DHT22;5854;48.072;16.286;2024-02-23T13:33:06;9.50;86.40
11597;DHT22;5854;48.072;16.286;2024-02-23T13:35:38;9.50;85.80
11597;DHT22;5854;48.072;16.286;2024-02-23T13:38:05;9.40;82.10
11597;DHT22;5854;48.072;16.286;2024-02-23T13:40:33;9.40;80.70
11597;DHT22;5854;48.072;16.286;2024-02-23T13:43:00;9.40;84.60
11597;DHT22;5854;48.072;16.286;2024-02-23T13:45:27;9.30;82.30
11597;DHT22;5854;48.072;16.286;2024-02-23T13:47:59;9.40;84.20
11597;DHT22;5854;48.072;16.286;2024-02-23T13:50:27;9.40;84.10
11597;DHT22;5854;48.072;16.286;2024-02-23T13:52:57;9.30;84.00
11597;DHT22;5854;48.072;16.286;2024-02-23T13:55:24;9.30;82.60
11597;DHT22;5854;48.072;16.286;2024-02-23T13:57:51;9.40;82.70
11597;DHT22;5854;48.072;16.286;2024-02-23T14:00:19;9.40;81.70
11597;DHT22;5854;48.072;16.286;2024-02-23T14:02:47;9.40;78.60
11597;DHT22;5854;48.072;16.286;2024-02-23T14:05:15;9.50;81.60
11597;DHT22;5854;48.072;16.286;2024-02-23T14:07:43;9.60;81.70
11597;DHT22;5854;48.072;16.286;2024-02-23T14:10:12;9.60;79.20
11597;DHT22;5854;48.072;16.286;2024-02-23T14:12:40;9.50;80.30
11597;DHT22;5854;48.072;16.286;2024-02-23T14:15:08;9.50;81.50
11597;DHT22;5854;48.072;16.286;2024-02-23T14:17:36;9.50;81.10
11597;DHT22;5854;48.072;16.286;2024-02-23T14:20:04;9.50;81.50
11597;DHT22;5854;48.072;16.286;2024-02-23T14:22:32;9.50;82.20
11597;DHT22;5854;48.072;16.286;2024-02-23T14:24:59;9.50;81.00
11597;DHT22;5854;48.072;16.286;2024-02-23T14:27:28;9.40;80.80
11597;DHT22;5854;48.072;16.286;2024-02-23T14:29:55;9.40;79.00
11597;DHT22;5854;48.072;16.286;2024-02-23T14:32:23;9.40;81.20
11597;DHT22;5854;48.072;16.286;2024-02-23T14:34:50;9.40;81.20
11597;DHT22;5854;48.072;16.286;2024-02-23T14:37:17;9.50;87.50
11597;DHT22;5854;48.072;16.286;2024-02-23T14:39:45;9.60;82.00
11597;DHT22;5854;48.072;16.286;2024-02-23T14:42:12;9.60;77.70
11597;DHT22;5854;48.072;16.286;2024-02-23T14:44:40;9.50;79.90
11597;DHT22;5854;48.072;16.286;2024-02-23T14:47:08;9.50;78.30
11597;DHT22;5854;48.072;16.286;2024-02-23T14:49:35;9.40;79.30
11597;DHT22;5854;48.072;16.286;2024-02-23T14:52:02;9.40;78.30
11597;DHT22;5854;48.072;16.286;2024-02-23T14:54:30;9.40;81.20
11597;DHT22;5854;48.072;16.286;2024-02-23T14:56:58;9.60;83.20
11597;DHT22;5854;48.072;16.286;2024-02-23T14:59:26;9.50;80.10
11597;DHT22;5854;48.072;16.286;2024-02-23T15:01:54;9.40;81.70
11597;DHT22;5854;48.072;16.286;2024-02-23T15:04:22;9.40;79.50
11597;DHT22;5854;48.072;16.286;2024-02-23T15:06:49;9.40;81.90
11597;DHT22;5854;48.072;16.286;2024-02-23T15:09:16;9.50;80.10
11597;DHT22;5854;48.072;16.286;2024-02-23T15:11:43;9.50;78.40
11597;DHT22;5854;48.072;16.286;2024-02-23T15:14:11;9.40;79.40
11597;DHT22;5854;48.072;16.286;2024-02-23T15:16:40;9.40;78.50
11597;DHT22;5854;48.072;16.286;2024-02-23T15:19:09;9.60;88.60
11597;DHT22;5854;48.072;16.286;2024-02-23T15:21:37;9.60;82.10
11597;DHT22;5854;48.072;16.286;2024-02-23T15:24:06;9.50;81.20
11597;DHT22;5854;48.072;16.286;2024-02-23T15:26:34;9.40;82.50
11597;DHT22;5854;48.072;16.286;2024-02-23T15:29:01;9.40;81.90
11597;DHT22;5854;48.072;16.286;2024-02-23T15:31:30;9.40;82.60
11597;DHT22;5854;48.072;16.286;2024-02-23T15:33:57;9.40;82.40
11597;DHT22;5854;48.072;16.286;2024-02-23T15:36:28;9.40;82.40
11597;DHT22;5854;48.072;16.286;2024-02-23T15:38:55;9.40;82.00
11597;DHT22;5854;48.072;16.286;2024-02-23T15:41:24;9.40;82.30
11597;DHT22;5854;48.072;16.286;2024-02-23T15:43:52;9.40;83.10
11597;DHT22;5854;48.072;16.286;2024-02-23T15:46:19;9.40;82.70
11597;DHT22;5854;48.072;16.286;2024-02-23T15:48:51;9.40;83.70
11597;DHT22;5854;48.072;16.286;2024-02-23T15:51:18;9.30;82.10
11597;DHT22;5854;48.072;16.286;2024-02-23T15:53:47;9.30;80.90
11597;DHT22;5854;48.072;16.286;2024-02-23T15:56:15;9.30;81.20
11597;DHT22;5854;48.072;16.286;2024-02-23T15:58:42;9.30;81.20